West Palm Beach, FL

7:33 PM EDT on April 27, 2015 (GMT -0400)
Palm Beach International | | Change Station
CLOSE
Current Station
Airport
Location: West Palm Beach,
Elevation: 20 ft
Nearby Weather Stations

Elev 20 ft 26.68 °N, 80.10 °W | Updated 40 minutes ago

Thunderstorms and Rain
Thunderstorm Rain Mist
75 °F
Feels Like 75 °F
N
16
Wind Variable Wind from NE

Today
High -- | Low -- °F
--% Chance of Precip.
Yesterday
High -- | Low -- °F
Precip. -- in
6:45 AM 7:50 PM
Waxing Gibbous, 68% visible
Pressure 29.81 in
Visibility 3.0 miles
Clouds Few 1600 ft
Mostly Cloudy 2600 ft
Overcast 5500 ft
Dew Point 72 °F
Humidity 90%
Rainfall 0.42 in
Snow Depth Not available.
UV 0 out of 12
Pollen 4.30 out of 12
Air Quality Not available.
Flu Activity Local Activity
METAR KPBI 272253Z 04014KT 3SM R10L/4000VP6000FT TSRA BR FEW016 BKN026CB OVC055 24/22 A2981 RMK AO2 PK WND 13026/2228 WSHFT 2228 RAB24 TSB10 SLP095 OCNL LTGICCC OHD-ALQDS TS OHD-ALQDS MOV E CB DSNT NW-NE P0042 T02390222 $

More Conditions Fewer Conditions

Pressure 29.81 in
Visibility 3.0 miles
Clouds Few 1600 ft
Mostly Cloudy 2600 ft
Overcast 5500 ft
Dew Point 72 °F
Humidity 90%
Rainfall 0.42 in
Snow Depth Not available.
UV 0 out of 12
Pollen 4.30 out of 12
Air Quality Not available.
Flu Activity Local Activity
METAR KPBI 272253Z 04014KT 3SM R10L/4000VP6000FT TSRA BR FEW016 BKN026CB OVC055 24/22 A2981 RMK AO2 PK WND 13026/2228 WSHFT 2228 RAB24 TSB10 SLP095 OCNL LTGICCC OHD-ALQDS TS OHD-ALQDS MOV E CB DSNT NW-NE P0042 T02390222 $

More Conditions Fewer Conditions

10-Day Weather Forecast

Almanac

Astronomy

Apr. 27, 2015 Rise Set
Actual Time
Civil Twilight
Nautical Twilight
Astronomical Twilight
Moon
Length of Visible Light
Length of Day
Tomorrow will be .
, % of the Moon is Illuminated

Today's Extremes

State Highs State Lows

Community

WunderPhotos

Upload Photos

1,817,473 photos uploaded!

WunderBlogs® & News

Nearby

Air Quality

  Air Quality AQ Index Pollutant
Not available.

Snow Depth

Station Depth Elevation

Earthquake Activity

City Distance Mag. Time & Date
Minimum magnitude displayed is 2.5.

Coastal Water Temperatures

Place Temperature

Stations

Nearby Weather Stations

Station Location Temp. Windchill Dew Point Humidity Wind Precip. Elev Updated Type